Time;durP1;ratioP1;P1;durP2;ratioP2;P2;SDS_P1;SDS_P2;PMS_P1;PMS_P2;Temp;Humidity;BMP_temperature;BMP_pressure;BME280_temperature;BME280_humidity;BME280_pressure;Samples;Min_cycle;Max_cycle;Signal;HPM_P1;HPM_P2
2021/07/04 00:00:24;;;;;;;7.18;6.18;;;;;;;;;;2024973;29;20639;-55
2021/07/04 00:01:24;;;;;;;5.85;5.40;;;;;;;;;;2010759;29;20686;-54
2021/07/04 00:02:25;;;;;;;7.10;6.50;;;;;;;;;;2025161;29;20200;-53
2021/07/04 00:03:25;;;;;;;6.35;5.85;;;;;;;;;;2032378;29;20239;-54
2021/07/04 00:04:25;;;;;;;5.95;5.47;;;;;;;;;;2031913;29;20184;-54
2021/07/04 00:05:37;;;;;;;7.28;6.68;;;;;;;;;;2025202;29;20204;-52
2021/07/04 00:06:37;;;;;;;6.28;5.68;;;;;;;;;;2025008;29;20262;-51
2021/07/04 00:07:41;;;;;;;6.05;5.55;;;;;;;;;;2025127;29;20186;-53
2021/07/04 00:08:41;;;;;;;5.75;5.35;;;;;;;;;;2025475;29;20165;-54
2021/07/04 00:09:42;;;;;;;6.43;5.80;;;;;;;;;;2025063;29;20638;-52
2021/07/04 00:10:44;;;;;;;5.72;5.22;;;;;;;;;;2024928;29;20317;-52
2021/07/04 00:11:44;;;;;;;5.85;5.35;;;;;;;;;;2018925;29;20201;-56
2021/07/04 00:12:45;;;;;;;5.97;5.55;;;;;;;;;;2024369;29;20193;-53
2021/07/04 00:13:45;;;;;;;6.88;6.25;;;;;;;;;;2024465;29;20181;-52
2021/07/04 00:14:45;;;;;;;6.00;5.40;;;;;;;;;;2025204;29;20184;-55
2021/07/04 00:15:46;;;;;;;6.88;6.28;;;;;;;;;;2024277;29;20193;-52
2021/07/04 00:16:47;;;;;;;6.40;5.90;;;;;;;;;;2024472;29;20184;-52
2021/07/04 00:17:47;;;;;;;6.78;6.10;;;;;;;;;;2025013;29;20188;-51
2021/07/04 00:18:47;;;;;;;6.75;6.13;;;;;;;;;;2024699;29;20746;-54
2021/07/04 00:19:48;;;;;;;6.88;6.28;;;;;;;;;;2025409;29;20184;-52
2021/07/04 00:20:48;;;;;;;6.72;5.75;;;;;;;;;;2025283;29;20526;-55
2021/07/04 00:21:49;;;;;;;6.85;6.32;;;;;;;;;;2024982;29;20596;-56
2021/07/04 00:22:56;;;;;;;6.35;5.85;;;;;;;;;;2025655;29;20184;-53
2021/07/04 00:23:56;;;;;;;7.70;6.47;;;;;;;;;;2023938;29;20204;-53
2021/07/04 00:24:57;;;;;;;7.18;6.57;;;;;;;;;;2024998;29;20177;-56
2021/07/04 00:25:57;;;;;;;7.43;6.75;;;;;;;;;;2025169;29;20180;-55
2021/07/04 00:26:57;;;;;;;6.53;6.03;;;;;;;;;;2025160;29;20225;-56
2021/07/04 00:27:58;;;;;;;7.82;7.07;;;;;;;;;;2023863;29;20205;-56
2021/07/04 00:28:59;;;;;;;7.30;6.70;;;;;;;;;;2024468;29;20721;-54
2021/07/04 00:29:59;;;;;;;6.63;6.03;;;;;;;;;;2023914;29;20177;-52
2021/07/04 00:31:01;;;;;;;6.35;5.85;;;;;;;;;;2025139;29;20177;-58
2021/07/04 00:32:01;;;;;;;7.65;7.05;;;;;;;;;;2024534;29;20279;-54
2021/07/04 00:33:03;;;;;;;6.78;6.10;;;;;;;;;;2025743;29;20645;-51
2021/07/04 00:34:03;;;;;;;6.55;6.05;;;;;;;;;;2025171;29;20173;-54
2021/07/04 00:35:04;;;;;;;7.10;6.60;;;;;;;;;;2025746;29;20259;-53
2021/07/04 00:36:05;;;;;;;6.53;6.03;;;;;;;;;;2025553;29;20634;-51
2021/07/04 00:37:06;;;;;;;6.35;5.85;;;;;;;;;;2024476;29;20221;-53
2021/07/04 00:38:07;;;;;;;7.00;6.43;;;;;;;;;;2024932;29;20857;-52
2021/07/04 00:39:07;;;;;;;7.22;6.55;;;;;;;;;;2025336;29;20181;-52
2021/07/04 00:40:09;;;;;;;7.45;6.78;;;;;;;;;;2021502;29;20205;-55
2021/07/04 00:41:09;;;;;;;6.53;6.03;;;;;;;;;;2016127;29;20697;-53
2021/07/04 00:42:13;;;;;;;7.80;6.90;;;;;;;;;;2023706;29;20205;-54
2021/07/04 00:43:14;;;;;;;6.72;6.13;;;;;;;;;;2024415;29;20165;-53
2021/07/04 00:44:15;;;;;;;6.78;6.18;;;;;;;;;;2012496;29;20186;-53
2021/07/04 00:45:16;;;;;;;6.82;6.30;;;;;;;;;;2008941;29;20316;-53
2021/07/04 00:46:17;;;;;;;6.25;5.85;;;;;;;;;;2016483;29;20184;-50
2021/07/04 00:47:18;;;;;;;6.75;6.13;;;;;;;;;;2028945;29;20176;-54
2021/07/04 00:48:19;;;;;;;6.13;5.72;;;;;;;;;;2031659;29;20672;-50
2021/07/04 00:49:21;;;;;;;7.00;6.47;;;;;;;;;;2032038;29;20677;-52
2021/07/04 00:50:22;;;;;;;5.80;5.40;;;;;;;;;;2031727;29;20308;-54
2021/07/04 00:51:24;;;;;;;6.68;6.10;;;;;;;;;;2023940;29;20213;-51
2021/07/04 00:52:24;;;;;;;6.95;6.22;;;;;;;;;;2016202;29;20182;-55
2021/07/04 00:53:25;;;;;;;6.50;6.00;;;;;;;;;;2021703;29;20602;-55
2021/07/04 00:54:26;;;;;;;6.88;6.25;;;;;;;;;;2031648;29;20236;-51
2021/07/04 00:55:27;;;;;;;6.13;5.57;;;;;;;;;;2024120;29;20173;-54
2021/07/04 00:56:32;;;;;;;6.40;5.90;;;;;;;;;;2020978;29;20658;-53
2021/07/04 00:57:34;;;;;;;7.03;6.43;;;;;;;;;;2022588;29;20230;-52
2021/07/04 00:58:35;;;;;;;7.32;6.70;;;;;;;;;;2024116;29;20188;-52
2021/07/04 00:59:37;;;;;;;6.75;6.15;;;;;;;;;;2031689;29;20172;-53
2021/07/04 01:00:38;;;;;;;6.72;6.22;;;;;;;;;;2024772;29;20280;-55
2021/07/04 01:01:39;;;;;;;6.55;6.00;;;;;;;;;;2024023;29;20306;-52
2021/07/04 01:02:40;;;;;;;7.05;6.55;;;;;;;;;;2023261;29;20711;-51
2021/07/04 01:03:41;;;;;;;6.90;6.30;;;;;;;;;;2016403;29;20180;-53
2021/07/04 01:04:41;;;;;;;6.70;6.13;;;;;;;;;;2016209;29;20201;-52
2021/07/04 01:05:42;;;;;;;6.38;5.90;;;;;;;;;;2024147;29;20180;-52
2021/07/04 01:06:44;;;;;;;7.05;6.45;;;;;;;;;;2024297;29;20193;-53
2021/07/04 01:07:46;;;;;;;6.95;6.45;;;;;;;;;;2023642;29;20180;-50
2021/07/04 01:08:47;;;;;;;7.15;6.47;;;;;;;;;;2024379;29;20211;-50
2021/07/04 01:09:48;;;;;;;7.78;7.07;;;;;;;;;;2024686;29;20262;-51
2021/07/04 01:10:49;;;;;;;8.02;7.43;;;;;;;;;;2025626;29;20210;-51
2021/07/04 01:11:51;;;;;;;7.95;7.15;;;;;;;;;;2025010;29;20196;-51
2021/07/04 01:12:53;;;;;;;8.68;7.68;;;;;;;;;;2025885;29;20271;-54
2021/07/04 01:13:55;;;;;;;8.10;7.40;;;;;;;;;;2033442;29;20319;-51
2021/07/04 01:14:55;;;;;;;8.52;7.75;;;;;;;;;;2033558;29;20700;-52
2021/07/04 01:15:56;;;;;;;8.43;7.72;;;;;;;;;;2026358;29;20244;-54
2021/07/04 01:16:58;;;;;;;8.82;8.00;;;;;;;;;;2025335;29;20461;-50
2021/07/04 01:18:00;;;;;;;9.02;8.23;;;;;;;;;;2018133;29;20194;-51
2021/07/04 01:19:02;;;;;;;9.18;8.27;;;;;;;;;;2025849;29;20211;-53
2021/07/04 01:20:07;;;;;;;9.50;8.65;;;;;;;;;;2033214;29;20180;-53
2021/07/04 01:21:08;;;;;;;9.48;8.70;;;;;;;;;;2032328;29;20176;-53
2021/07/04 01:22:12;;;;;;;9.63;8.82;;;;;;;;;;2026667;29;20177;-53
2021/07/04 01:23:16;;;;;;;10.27;9.40;;;;;;;;;;2025208;29;20189;-51
2021/07/04 01:24:18;;;;;;;10.13;9.23;;;;;;;;;;2025824;29;20479;-56
2021/07/04 01:25:19;;;;;;;10.43;9.50;;;;;;;;;;2025257;29;20228;-52
2021/07/04 01:26:19;;;;;;;10.23;9.32;;;;;;;;;;2022850;29;20677;-53
2021/07/04 01:27:20;;;;;;;10.07;9.07;;;;;;;;;;2033232;29;20359;-54
2021/07/04 01:28:20;;;;;;;10.48;9.57;;;;;;;;;;2020722;29;20217;-53
2021/07/04 01:29:24;;;;;;;10.45;9.65;;;;;;;;;;2023496;29;20256;-53
2021/07/04 01:30:26;;;;;;;11.38;10.38;;;;;;;;;;2023606;29;20173;-52
2021/07/04 01:31:27;;;;;;;11.25;10.23;;;;;;;;;;2023025;29;20245;-53
2021/07/04 01:32:38;;;;;;;10.60;9.57;;;;;;;;;;2026101;29;20189;-55
2021/07/04 01:33:39;;;;;;;13.43;11.18;;;;;;;;;;2025377;29;20181;-53
2021/07/04 01:34:48;;;;;;;10.80;9.80;;;;;;;;;;2018143;29;20189;-51
2021/07/04 01:35:49;;;;;;;11.75;10.65;;;;;;;;;;2017491;29;20190;-51
2021/07/04 01:36:49;;;;;;;12.30;11.13;;;;;;;;;;2023807;29;20663;-52
2021/07/04 01:37:50;;;;;;;11.15;10.02;;;;;;;;;;2019712;29;20181;-51
2021/07/04 01:38:50;;;;;;;11.70;10.50;;;;;;;;;;2025306;29;20180;-52
2021/07/04 01:39:51;;;;;;;11.45;10.45;;;;;;;;;;2025805;29;20210;-55
2021/07/04 01:40:52;;;;;;;12.57;11.38;;;;;;;;;;2033576;29;20208;-52
2021/07/04 01:41:53;;;;;;;13.23;12.02;;;;;;;;;;2032454;29;20231;-53
2021/07/04 01:42:59;;;;;;;13.07;11.75;;;;;;;;;;2033834;29;20187;-51
2021/07/04 01:44:01;;;;;;;13.15;11.75;;;;;;;;;;2033491;29;20182;-51
2021/07/04 01:45:04;;;;;;;12.82;11.43;;;;;;;;;;2024358;29;20243;-51
2021/07/04 01:46:05;;;;;;;13.90;11.43;;;;;;;;;;2020260;29;20294;-54
2021/07/04 01:47:06;;;;;;;12.48;11.27;;;;;;;;;;2016921;29;20173;-50
2021/07/04 01:48:13;;;;;;;12.73;11.48;;;;;;;;;;2026370;29;20197;-53
2021/07/04 01:49:16;;;;;;;12.30;11.00;;;;;;;;;;2032211;29;20172;-50
2021/07/04 01:50:21;;;;;;;12.75;11.48;;;;;;;;;;2026252;29;20176;-51
2021/07/04 01:51:21;;;;;;;13.18;11.88;;;;;;;;;;2025085;29;20181;-52
2021/07/04 01:52:22;;;;;;;13.93;12.55;;;;;;;;;;2024803;29;20666;-54
2021/07/04 01:53:22;;;;;;;12.88;11.50;;;;;;;;;;2025767;29;20241;-51
2021/07/04 01:54:27;;;;;;;12.10;10.98;;;;;;;;;;2025317;29;20248;-51
2021/07/04 01:55:28;;;;;;;12.85;11.60;;;;;;;;;;2025639;29;20232;-51
2021/07/04 01:56:29;;;;;;;12.88;11.57;;;;;;;;;;2025589;29;20181;-52
2021/07/04 01:57:33;;;;;;;13.00;11.63;;;;;;;;;;2026241;29;20267;-54
2021/07/04 01:58:40;;;;;;;12.65;11.48;;;;;;;;;;2012695;29;20194;-53
2021/07/04 01:59:41;;;;;;;12.50;11.30;;;;;;;;;;2019045;29;20254;-53
2021/07/04 02:00:49;;;;;;;12.68;11.35;;;;;;;;;;2031410;29;20559;-52
2021/07/04 02:01:49;;;;;;;13.32;12.02;;;;;;;;;;2026199;29;20239;-50
2021/07/04 02:02:52;;;;;;;12.70;11.45;;;;;;;;;;2026278;29;20855;-51
2021/07/04 02:04:00;;;;;;;12.45;11.20;;;;;;;;;;2025557;29;20177;-51
2021/07/04 02:05:01;;;;;;;12.05;10.88;;;;;;;;;;2021157;29;20672;-51
2021/07/04 02:06:02;;;;;;;11.90;10.85;;;;;;;;;;2026453;29;20180;-52
2021/07/04 02:07:04;;;;;;;10.57;9.68;;;;;;;;;;2026250;29;20185;-53
2021/07/04 02:08:06;;;;;;;11.90;10.73;;;;;;;;;;2024404;29;20353;-55
2021/07/04 02:09:06;;;;;;;11.55;10.55;;;;;;;;;;2025391;29;20185;-53
2021/07/04 02:10:08;;;;;;;12.20;11.00;;;;;;;;;;2023237;29;20176;-51
2021/07/04 02:11:14;;;;;;;11.98;10.85;;;;;;;;;;2022308;29;20256;-51
2021/07/04 02:12:19;;;;;;;11.57;10.48;;;;;;;;;;2032368;29;20561;-51
2021/07/04 02:13:21;;;;;;;12.35;11.20;;;;;;;;;;2025859;29;20191;-51
2021/07/04 02:14:30;;;;;;;12.70;11.35;;;;;;;;;;2024614;29;20188;-51
2021/07/04 02:15:40;;;;;;;12.43;10.27;;;;;;;;;;2033319;29;20656;-51
2021/07/04 02:16:46;;;;;;;13.40;12.10;;;;;;;;;;2032995;29;20169;-53
2021/07/04 02:18:11;;;;;;;11.45;10.35;;;;;;;;;;2024816;29;20197;-54
2021/07/04 02:19:35;;;;;;;12.68;11.13;;;;;;;;;;2005186;29;20199;-51
2021/07/04 02:20:54;;;;;;;13.35;12.15;;;;;;;;;;2027555;29;20169;-52
2021/07/04 02:22:01;;;;;;;11.27;10.25;;;;;;;;;;2025120;29;20165;-53
2021/07/04 02:23:19;;;;;;;12.65;11.30;;;;;;;;;;2033090;29;20587;-51
2021/07/04 02:24:35;;;;;;;11.18;9.95;;;;;;;;;;2022835;29;20634;-53
2021/07/04 02:25:56;;;;;;;12.32;10.90;;;;;;;;;;2016944;29;20244;-52
2021/07/04 02:26:57;;;;;;;12.23;11.02;;;;;;;;;;2019799;29;20189;-54
2021/07/04 02:29:21;;;;;;;14.98;13.18;;;;;;;;;;2019564;29;20633;-54
2021/07/04 02:30:23;;;;;;;14.35;12.95;;;;;;;;;;2025827;29;20228;-53
2021/07/04 02:31:26;;;;;;;13.68;11.82;;;;;;;;;;2031928;29;20283;-53
2021/07/04 02:32:29;;;;;;;13.38;12.00;;;;;;;;;;2033450;29;20563;-55
2021/07/04 02:33:33;;;;;;;12.93;11.63;;;;;;;;;;2025773;29;20658;-55
2021/07/04 02:34:34;;;;;;;14.02;12.70;;;;;;;;;;2017264;29;20857;-57
2021/07/04 02:35:38;;;;;;;12.10;10.98;;;;;;;;;;2016948;29;20182;-55
2021/07/04 02:36:38;;;;;;;13.27;11.90;;;;;;;;;;2017087;29;20590;-55
2021/07/04 02:37:49;;;;;;;11.57;10.48;;;;;;;;;;2023737;29;20200;-58
2021/07/04 02:38:54;;;;;;;12.43;11.10;;;;;;;;;;2031554;29;20199;-55
2021/07/04 02:39:56;;;;;;;11.70;10.60;;;;;;;;;;2017376;29;20200;-57
2021/07/04 02:40:57;;;;;;;11.90;10.85;;;;;;;;;;2017593;29;20562;-54
2021/07/04 02:41:58;;;;;;;12.45;11.20;;;;;;;;;;2016716;29;20718;-56
2021/07/04 02:42:58;;;;;;;11.73;10.52;;;;;;;;;;2018010;29;20213;-54
2021/07/04 02:43:58;;;;;;;13.68;12.23;;;;;;;;;;2018498;29;20252;-55
2021/07/04 02:45:00;;;;;;;12.02;10.85;;;;;;;;;;2016884;29;20474;-52
2021/07/04 02:46:00;;;;;;;13.32;11.88;;;;;;;;;;2012602;29;20281;-54
2021/07/04 02:47:01;;;;;;;12.35;11.15;;;;;;;;;;2017359;29;20182;-57
2021/07/04 02:48:04;;;;;;;14.23;12.77;;;;;;;;;;2018076;29;20186;-54
2021/07/04 02:49:05;;;;;;;13.63;12.23;;;;;;;;;;2017058;29;20586;-53
2021/07/04 02:50:06;;;;;;;13.75;12.45;;;;;;;;;;2017242;29;20184;-52
2021/07/04 02:51:07;;;;;;;13.55;12.18;;;;;;;;;;2017507;29;20178;-55
2021/07/04 02:52:08;;;;;;;13.85;12.50;;;;;;;;;;2017668;29;20174;-53
2021/07/04 02:53:09;;;;;;;13.88;12.38;;;;;;;;;;2017367;29;20715;-56
2021/07/04 02:54:11;;;;;;;14.95;12.93;;;;;;;;;;2018169;29;20200;-58
2021/07/04 02:55:11;;;;;;;13.45;12.15;;;;;;;;;;2017790;29;20233;-51
2021/07/04 02:56:15;;;;;;;14.18;12.43;;;;;;;;;;2018024;29;20201;-53
2021/07/04 02:57:16;;;;;;;14.10;12.70;;;;;;;;;;2010436;29;20170;-57
2021/07/04 02:58:17;;;;;;;14.70;12.52;;;;;;;;;;2017721;29;20666;-54
2021/07/04 02:59:19;;;;;;;13.45;12.10;;;;;;;;;;2018064;29;20243;-52
2021/07/04 03:00:21;;;;;;;15.50;13.88;;;;;;;;;;2010113;29;20988;-55
2021/07/04 03:01:21;;;;;;;15.55;14.05;;;;;;;;;;2010931;29;20923;-56
2021/07/04 03:02:23;;;;;;;14.25;12.85;;;;;;;;;;2019119;29;20182;-55
2021/07/04 03:03:29;;;;;;;14.77;13.05;;;;;;;;;;2020699;29;20184;-54
2021/07/04 03:04:31;;;;;;;15.68;13.38;;;;;;;;;;2026453;29;20187;-54
2021/07/04 03:05:31;;;;;;;13.98;12.57;;;;;;;;;;2026474;29;20268;-52
2021/07/04 03:06:32;;;;;;;13.63;12.32;;;;;;;;;;2011104;29;20179;-56
2021/07/04 03:07:32;;;;;;;14.77;12.85;;;;;;;;;;2017965;29;20198;-55
2021/07/04 03:08:33;;;;;;;13.30;12.00;;;;;;;;;;2018707;29;20563;-52
2021/07/04 03:09:34;;;;;;;14.35;12.95;;;;;;;;;;2019527;29;20209;-56
2021/07/04 03:10:35;;;;;;;14.48;12.95;;;;;;;;;;2018888;29;20162;-53
2021/07/04 03:11:36;;;;;;;15.00;13.40;;;;;;;;;;2017999;29;20229;-57
2021/07/04 03:12:37;;;;;;;14.68;13.18;;;;;;;;;;2018590;29;20600;-55
2021/07/04 03:13:38;;;;;;;14.30;12.90;;;;;;;;;;2018651;29;20188;-56
2021/07/04 03:14:38;;;;;;;14.00;12.63;;;;;;;;;;2019013;29;20189;-56
2021/07/04 03:15:39;;;;;;;16.52;14.50;;;;;;;;;;2018370;29;20710;-55
2021/07/04 03:16:41;;;;;;;14.27;12.88;;;;;;;;;;2018361;29;20178;-56
2021/07/04 03:17:41;;;;;;;13.65;12.35;;;;;;;;;;2019354;29;20253;-57
2021/07/04 03:18:42;;;;;;;13.88;12.48;;;;;;;;;;2023761;29;20748;-55
2021/07/04 03:19:43;;;;;;;14.43;13.05;;;;;;;;;;2021312;29;20182;-56
2021/07/04 03:20:43;;;;;;;14.13;12.65;;;;;;;;;;2017202;29;20217;-54
2021/07/04 03:21:46;;;;;;;14.15;12.40;;;;;;;;;;2009716;29;20206;-56
2021/07/04 03:22:47;;;;;;;14.50;12.98;;;;;;;;;;2017393;29;20237;-51
2021/07/04 03:23:49;;;;;;;14.63;13.00;;;;;;;;;;2017291;29;20181;-56
2021/07/04 03:24:50;;;;;;;14.57;12.65;;;;;;;;;;2016612;29;20186;-55
2021/07/04 03:25:52;;;;;;;13.77;12.35;;;;;;;;;;2016989;29;20265;-55
2021/07/04 03:26:53;;;;;;;14.15;12.75;;;;;;;;;;2003574;29;20207;-57
2021/07/04 03:27:53;;;;;;;13.27;11.82;;;;;;;;;;2017034;29;20162;-54
2021/07/04 03:28:53;;;;;;;13.77;12.38;;;;;;;;;;2016284;29;20224;-54
2021/07/04 03:30:10;;;;;;;13.63;12.23;;;;;;;;;;2016936;29;20193;-52
2021/07/04 03:31:10;;;;;;;13.50;12.18;;;;;;;;;;2008724;29;20170;-55
2021/07/04 03:32:12;;;;;;;12.95;11.68;;;;;;;;;;2016814;29;20189;-57
2021/07/04 03:33:12;;;;;;;13.77;12.52;;;;;;;;;;2017212;29;20166;-56
2021/07/04 03:34:13;;;;;;;12.48;11.35;;;;;;;;;;2017739;29;20221;-56
2021/07/04 03:35:14;;;;;;;12.93;11.68;;;;;;;;;;2017385;29;20245;-53
2021/07/04 03:36:15;;;;;;;13.20;11.85;;;;;;;;;;2016911;29;20691;-55
2021/07/04 03:37:18;;;;;;;13.50;12.07;;;;;;;;;;2009286;29;20182;-54
2021/07/04 03:38:18;;;;;;;12.70;11.50;;;;;;;;;;2016735;29;20563;-55
2021/07/04 03:39:22;;;;;;;11.73;10.63;;;;;;;;;;2009284;29;20181;-56
2021/07/04 03:40:23;;;;;;;12.50;11.20;;;;;;;;;;2016700;29;20261;-53
2021/07/04 03:41:27;;;;;;;12.15;11.05;;;;;;;;;;2016914;29;20214;-56
2021/07/04 03:42:28;;;;;;;11.88;10.73;;;;;;;;;;2017147;29;20208;-57
2021/07/04 03:43:28;;;;;;;13.38;12.07;;;;;;;;;;2016660;29;20226;-53
2021/07/04 03:44:30;;;;;;;12.30;11.13;;;;;;;;;;2017026;29;20192;-54
2021/07/04 03:45:30;;;;;;;12.52;11.15;;;;;;;;;;2017453;29;20180;-57
2021/07/04 03:46:32;;;;;;;12.00;10.73;;;;;;;;;;2016688;29;20178;-56
2021/07/04 03:47:33;;;;;;;12.63;11.40;;;;;;;;;;2024711;29;20169;-54
2021/07/04 03:48:33;;;;;;;11.52;10.38;;;;;;;;;;2022846;29;20177;-57
2021/07/04 03:49:39;;;;;;;12.82;11.52;;;;;;;;;;2010403;29;20205;-56
2021/07/04 03:50:44;;;;;;;12.55;11.25;;;;;;;;;;2010341;29;20178;-56
2021/07/04 03:51:46;;;;;;;12.95;11.73;;;;;;;;;;2016703;29;20185;-54
2021/07/04 03:52:53;;;;;;;11.95;10.85;;;;;;;;;;2017433;29;20182;-56
2021/07/04 03:53:55;;;;;;;13.23;11.35;;;;;;;;;;2016621;29;20742;-54
2021/07/04 03:54:55;;;;;;;11.00;10.00;;;;;;;;;;2009461;29;20182;-55
2021/07/04 03:56:01;;;;;;;11.95;10.52;;;;;;;;;;2011555;29;20198;-53
2021/07/04 03:57:21;;;;;;;12.43;11.27;;;;;;;;;;2016915;29;20204;-55
2021/07/04 03:58:22;;;;;;;11.80;10.80;;;;;;;;;;2016751;29;20667;-53
2021/07/04 03:59:22;;;;;;;11.55;10.45;;;;;;;;;;2017922;29;20170;-56
2021/07/04 04:00:23;;;;;;;11.75;10.75;;;;;;;;;;2016853;29;20169;-56
2021/07/04 04:01:32;;;;;;;11.60;10.52;;;;;;;;;;2018172;29;20292;-56
2021/07/04 04:02:33;;;;;;;11.63;10.63;;;;;;;;;;2016299;29;20174;-55
2021/07/04 04:03:34;;;;;;;12.02;10.85;;;;;;;;;;2009306;29;20182;-52
2021/07/04 04:04:36;;;;;;;11.85;10.75;;;;;;;;;;2017726;29;20189;-53
2021/07/04 04:05:37;;;;;;;11.50;10.40;;;;;;;;;;2004530;29;20219;-54
2021/07/04 04:06:39;;;;;;;12.73;10.75;;;;;;;;;;2008879;29;20186;-53
2021/07/04 04:07:50;;;;;;;11.13;10.13;;;;;;;;;;2004318;29;20185;-53
2021/07/04 04:08:51;;;;;;;12.90;10.75;;;;;;;;;;2016786;29;20189;-56
2021/07/04 04:10:02;;;;;;;11.52;10.52;;;;;;;;;;2032364;29;20576;-55
2021/07/04 04:11:04;;;;;;;12.07;10.95;;;;;;;;;;2024130;29;20177;-55
2021/07/04 04:12:05;;;;;;;11.77;10.68;;;;;;;;;;2016849;29;20197;-54
2021/07/04 04:13:09;;;;;;;11.63;10.52;;;;;;;;;;2017156;29;20166;-57
2021/07/04 04:14:12;;;;;;;12.20;11.02;;;;;;;;;;2009407;29;20261;-53
2021/07/04 04:15:16;;;;;;;11.35;10.40;;;;;;;;;;2013464;29;20170;-50
2021/07/04 04:16:21;;;;;;;12.38;11.18;;;;;;;;;;2021273;29;20664;-57
2021/07/04 04:17:22;;;;;;;12.07;10.88;;;;;;;;;;2016732;29;20184;-55
2021/07/04 04:18:24;;;;;;;11.70;10.57;;;;;;;;;;2016970;29;20170;-53
2021/07/04 04:19:27;;;;;;;11.20;10.20;;;;;;;;;;2016047;29;20224;-54
2021/07/04 04:20:27;;;;;;;11.02;9.90;;;;;;;;;;2009584;29;20178;-56
2021/07/04 04:21:28;;;;;;;9.45;8.38;;;;;;;;;;2016413;29;20793;-52
2021/07/04 04:22:35;;;;;;;9.90;9.10;;;;;;;;;;2017041;29;20190;-52
2021/07/04 04:23:35;;;;;;;9.25;8.45;;;;;;;;;;2019960;29;20241;-53
2021/07/04 04:24:38;;;;;;;10.30;9.40;;;;;;;;;;2009289;29;20174;-55
2021/07/04 04:25:39;;;;;;;9.55;8.75;;;;;;;;;;2009342;29;20182;-58
2021/07/04 04:26:39;;;;;;;10.02;9.13;;;;;;;;;;2016693;29;20651;-54
2021/07/04 04:27:40;;;;;;;9.77;8.88;;;;;;;;;;2017108;29;20322;-54
2021/07/04 04:28:42;;;;;;;9.52;8.73;;;;;;;;;;2023594;29;20240;-51
2021/07/04 04:29:43;;;;;;;12.88;10.05;;;;;;;;;;2017059;29;20174;-54
2021/07/04 04:30:45;;;;;;;8.80;8.00;;;;;;;;;;2009211;29;20283;-55
2021/07/04 04:31:49;;;;;;;9.95;9.05;;;;;;;;;;2024171;29;20177;-55
2021/07/04 04:32:49;;;;;;;9.20;8.40;;;;;;;;;;2024623;29;20191;-50
2021/07/04 04:33:50;;;;;;;10.10;9.20;;;;;;;;;;2016848;29;20234;-55
2021/07/04 04:34:51;;;;;;;10.18;9.27;;;;;;;;;;2017453;29;20268;-53
2021/07/04 04:35:51;;;;;;;11.15;9.98;;;;;;;;;;2017511;29;20311;-55
2021/07/04 04:36:51;;;;;;;9.55;8.75;;;;;;;;;;2018029;29;20177;-56
2021/07/04 04:37:52;;;;;;;10.50;8.70;;;;;;;;;;2018106;29;20174;-54
2021/07/04 04:38:52;;;;;;;10.27;9.40;;;;;;;;;;2018289;29;20232;-55
2021/07/04 04:39:52;;;;;;;11.30;10.20;;;;;;;;;;2018200;29;20209;-57
2021/07/04 04:40:53;;;;;;;10.63;9.63;;;;;;;;;;2018454;29;20182;-58
2021/07/04 04:41:53;;;;;;;12.00;10.90;;;;;;;;;;2018097;29;20638;-54
2021/07/04 04:42:54;;;;;;;13.60;9.98;;;;;;;;;;2018969;29;20257;-51
2021/07/04 04:43:54;;;;;;;11.70;10.50;;;;;;;;;;2018408;29;20189;-57
2021/07/04 04:44:54;;;;;;;11.98;10.30;;;;;;;;;;2019258;29;20181;-58
2021/07/04 04:45:55;;;;;;;12.35;11.15;;;;;;;;;;2015801;29;20607;-56
2021/07/04 04:46:55;;;;;;;11.93;10.82;;;;;;;;;;2018606;29;20185;-53
2021/07/04 04:47:55;;;;;;;12.05;10.93;;;;;;;;;;2018978;29;20226;-54
2021/07/04 04:48:56;;;;;;;11.75;10.55;;;;;;;;;;2019121;29;20754;-57
2021/07/04 04:49:56;;;;;;;11.48;10.45;;;;;;;;;;2018000;29;20189;-53
2021/07/04 04:50:56;;;;;;;11.70;10.60;;;;;;;;;;2017796;29;20197;-57
2021/07/04 04:51:57;;;;;;;11.73;10.63;;;;;;;;;;2017700;29;20196;-52
2021/07/04 04:52:57;;;;;;;12.70;11.32;;;;;;;;;;2018066;29;20189;-52
2021/07/04 04:53:58;;;;;;;12.38;11.27;;;;;;;;;;2018105;29;20182;-57
2021/07/04 04:54:58;;;;;;;13.75;12.35;;;;;;;;;;2017884;29;20272;-58
2021/07/04 04:55:58;;;;;;;15.05;13.57;;;;;;;;;;2024282;29;20191;-55
2021/07/04 04:57:05;;;;;;;12.52;11.27;;;;;;;;;;2025504;29;20177;-53
2021/07/04 04:58:06;;;;;;;15.02;13.63;;;;;;;;;;2025700;29;20173;-55
2021/07/04 04:59:06;;;;;;;11.40;10.30;;;;;;;;;;2025754;29;20280;-54
2021/07/04 05:00:12;;;;;;;10.32;9.43;;;;;;;;;;2025487;29;20173;-54
2021/07/04 05:01:12;;;;;;;10.20;9.18;;;;;;;;;;2014043;29;20226;-54
2021/07/04 05:02:12;;;;;;;12.02;10.65;;;;;;;;;;2018023;29;20177;-57
2021/07/04 05:03:12;;;;;;;10.20;9.32;;;;;;;;;;2026022;29;20173;-55
2021/07/04 05:04:13;;;;;;;11.65;10.65;;;;;;;;;;2032752;29;20175;-57
2021/07/04 05:05:13;;;;;;;12.15;11.05;;;;;;;;;;2016769;29;20659;-54
2021/07/04 05:06:13;;;;;;;13.40;12.10;;;;;;;;;;2015341;29;20184;-58
2021/07/04 05:07:14;;;;;;;10.48;9.40;;;;;;;;;;2020304;29;20173;-57
2021/07/04 05:08:16;;;;;;;12.75;11.45;;;;;;;;;;2015751;29;20177;-56
2021/07/04 05:09:16;;;;;;;13.35;12.05;;;;;;;;;;2012442;29;20197;-56
2021/07/04 05:10:16;;;;;;;10.82;9.73;;;;;;;;;;2024123;29;20195;-52
2021/07/04 05:11:17;;;;;;;11.63;10.63;;;;;;;;;;2016687;29;20200;-56
2021/07/04 05:12:17;;;;;;;11.18;10.18;;;;;;;;;;2019382;29;20194;-56
2021/07/04 05:13:18;;;;;;;10.38;9.43;;;;;;;;;;2016428;29;20178;-56
2021/07/04 05:14:19;;;;;;;10.30;9.43;;;;;;;;;;2016516;29;20233;-57
2021/07/04 05:15:19;;;;;;;13.07;11.77;;;;;;;;;;2016839;29;20212;-57
2021/07/04 05:16:19;;;;;;;10.82;9.93;;;;;;;;;;2016609;29;20186;-56
2021/07/04 05:17:20;;;;;;;11.73;10.57;;;;;;;;;;2016185;29;20221;-57
2021/07/04 05:18:20;;;;;;;10.60;9.68;;;;;;;;;;2016978;29;20174;-54
2021/07/04 05:19:21;;;;;;;10.75;9.65;;;;;;;;;;2016814;29;20631;-57
2021/07/04 05:20:21;;;;;;;10.23;9.32;;;;;;;;;;2016481;29;20732;-57
2021/07/04 05:21:21;;;;;;;10.75;9.75;;;;;;;;;;2015719;29;20178;-57
2021/07/04 05:22:22;;;;;;;10.50;9.60;;;;;;;;;;2016707;29;20629;-56
2021/07/04 05:23:22;;;;;;;10.30;9.40;;;;;;;;;;2016896;29;20272;-56
2021/07/04 05:24:22;;;;;;;10.68;9.68;;;;;;;;;;2016988;29;20237;-57
2021/07/04 05:25:23;;;;;;;9.73;8.93;;;;;;;;;;2016896;29;20209;-55
2021/07/04 05:26:23;;;;;;;10.00;9.00;;;;;;;;;;2016927;29;20253;-55
2021/07/04 05:27:23;;;;;;;9.85;9.05;;;;;;;;;;2017054;29;20184;-54
2021/07/04 05:28:24;;;;;;;9.98;9.07;;;;;;;;;;2015558;29;20182;-57
2021/07/04 05:29:27;;;;;;;11.77;10.57;;;;;;;;;;2025118;29;20255;-52
2021/07/04 05:30:27;;;;;;;12.48;11.18;;;;;;;;;;2031415;29;20175;-54
2021/07/04 05:31:27;;;;;;;9.32;8.63;;;;;;;;;;2017336;29;20185;-55
2021/07/04 05:32:28;;;;;;;9.45;8.63;;;;;;;;;;2013740;29;20230;-52
2021/07/04 05:33:28;;;;;;;8.98;8.18;;;;;;;;;;2017653;29;20606;-54
2021/07/04 05:34:28;;;;;;;10.25;9.30;;;;;;;;;;2018934;29;20562;-56
2021/07/04 05:35:29;;;;;;;10.18;9.27;;;;;;;;;;2016784;29;20372;-55
2021/07/04 05:36:29;;;;;;;10.55;9.65;;;;;;;;;;2017472;29;20746;-57
2021/07/04 05:37:29;;;;;;;10.00;9.20;;;;;;;;;;2016308;29;20230;-55
2021/07/04 05:38:35;;;;;;;12.18;10.95;;;;;;;;;;2016602;29;20233;-55
2021/07/04 05:39:35;;;;;;;11.90;10.80;;;;;;;;;;2024022;29;20196;-58
2021/07/04 05:40:35;;;;;;;10.52;9.63;;;;;;;;;;2023990;29;20205;-54
2021/07/04 05:41:36;;;;;;;11.35;10.35;;;;;;;;;;2016521;29;20229;-57
2021/07/04 05:42:36;;;;;;;11.55;10.55;;;;;;;;;;2016878;29;20256;-55
2021/07/04 05:43:40;;;;;;;11.48;10.45;;;;;;;;;;2016403;29;20182;-57
2021/07/04 05:44:40;;;;;;;12.40;11.10;;;;;;;;;;2016048;29;20197;-56
2021/07/04 05:45:41;;;;;;;11.73;10.63;;;;;;;;;;2016219;29;20655;-57
2021/07/04 05:46:41;;;;;;;12.38;10.63;;;;;;;;;;2015447;29;20311;-55
2021/07/04 05:47:41;;;;;;;12.70;11.35;;;;;;;;;;2015843;29;20233;-53
2021/07/04 05:48:43;;;;;;;12.98;11.68;;;;;;;;;;2016826;29;20197;-57
2021/07/04 05:49:43;;;;;;;11.80;10.80;;;;;;;;;;2016646;29;20189;-53
2021/07/04 05:50:43;;;;;;;13.70;12.30;;;;;;;;;;2016424;29;20190;-56
2021/07/04 05:51:44;;;;;;;12.30;11.10;;;;;;;;;;2020243;29;20193;-55
2021/07/04 05:52:45;;;;;;;12.45;11.23;;;;;;;;;;2016457;29;20261;-52
2021/07/04 05:53:46;;;;;;;13.18;11.85;;;;;;;;;;2016435;29;20177;-54
2021/07/04 05:54:46;;;;;;;12.35;11.23;;;;;;;;;;2016558;29;20181;-52
2021/07/04 05:55:46;;;;;;;13.15;11.85;;;;;;;;;;2017204;29;20192;-49
2021/07/04 05:56:46;;;;;;;12.80;11.50;;;;;;;;;;2014938;29;20376;-53
2021/07/04 05:57:46;;;;;;;12.98;11.68;;;;;;;;;;2017935;29;20278;-51
2021/07/04 05:58:47;;;;;;;12.48;11.27;;;;;;;;;;2018006;29;20190;-55
2021/07/04 05:59:47;;;;;;;12.02;10.82;;;;;;;;;;2018575;29;20201;-56
2021/07/04 06:00:47;;;;;;;13.25;11.93;;;;;;;;;;2018452;29;20615;-57
2021/07/04 06:01:47;;;;;;;13.13;11.70;;;;;;;;;;2018376;29;20816;-54
2021/07/04 06:02:48;;;;;;;12.77;11.45;;;;;;;;;;2012936;29;20186;-58
2021/07/04 06:03:48;;;;;;;12.15;11.05;;;;;;;;;;2019469;29;20646;-54
2021/07/04 06:04:48;;;;;;;11.73;10.52;;;;;;;;;;2018940;29;20265;-54
2021/07/04 06:05:48;;;;;;;12.13;10.90;;;;;;;;;;2019547;29;20189;-53